SWA2987 KLIT-KDAL
Flight info
| Callsign | SWA2987 |
|---|---|
| Flight time | 0h 53m |
| Altitude | 34000 |
| Route | LESME DIRRK HIBIL3 |
| Aircraft | B737/M-SADE2E3GIJ4RWZ/LB1D1 |
Departure
| Time | 2026-04-26 04:29 |
|---|---|
| Airport | Bill & Hillary Clinton National Airport/Adams Field (KLIT) |
Arrival
| Time | 2026-04-26 05:22 |
|---|---|
| Airport | Dallas Love Field (KDAL) |
| Time | Latitude | Longitude | Altitude | Speed | Heading |
|---|---|---|---|---|---|
| 2026-04-26 04:14 | 34.73120 | -92.21955 | 269 ft | 0 kts | 192° |
| 2026-04-26 04:20 | 34.73133 | -92.21951 | 269 ft | 3 kts | 192° |
| 2026-04-26 04:20 | 34.73150 | -92.21947 | 272 ft | 3 kts | 192° |
| 2026-04-26 04:21 | 34.73166 | -92.21942 | 270 ft | 2 kts | 192° |
| 2026-04-26 04:21 | 34.73182 | -92.21939 | 270 ft | 3 kts | 175° |
| 2026-04-26 04:21 | 34.73199 | -92.21945 | 270 ft | 3 kts | 137° |
| 2026-04-26 04:21 | 34.73205 | -92.21953 | 270 ft | 0 kts | 120° |
| 2026-04-26 04:22 | 34.73205 | -92.21952 | 270 ft | 0 kts | 120° |
| 2026-04-26 04:23 | 34.73192 | -92.21917 | 271 ft | 8 kts | 113° |
| 2026-04-26 04:23 | 34.73168 | -92.21845 | 269 ft | 11 kts | 112° |
| 2026-04-26 04:23 | 34.73117 | -92.21784 | 268 ft | 12 kts | 161° |
| 2026-04-26 04:23 | 34.73045 | -92.21801 | 267 ft | 9 kts | 187° |
| 2026-04-26 04:24 | 34.73008 | -92.21765 | 266 ft | 0 kts | 115° |
| 2026-04-26 04:24 | 34.73000 | -92.21746 | 265 ft | 5 kts | 118° |
| 2026-04-26 04:24 | 34.72984 | -92.21708 | 269 ft | 6 kts | 109° |
| 2026-04-26 04:24 | 34.72962 | -92.21643 | 269 ft | 10 kts | 114° |
| 2026-04-26 04:25 | 34.72930 | -92.21557 | 267 ft | 13 kts | 115° |
| 2026-04-26 04:25 | 34.72885 | -92.21437 | 265 ft | 19 kts | 115° |
| 2026-04-26 04:25 | 34.72834 | -92.21310 | 265 ft | 12 kts | 135° |
| 2026-04-26 04:25 | 34.72759 | -92.21334 | 267 ft | 16 kts | 227° |
| 2026-04-26 04:26 | 34.72653 | -92.21469 | 268 ft | 27 kts | 226° |
| 2026-04-26 04:26 | 34.72526 | -92.21631 | 269 ft | 27 kts | 226° |
| 2026-04-26 04:26 | 34.72388 | -92.21786 | 267 ft | 26 kts | 220° |
| 2026-04-26 04:26 | 34.72252 | -92.21924 | 264 ft | 25 kts | 221° |
| 2026-04-26 04:27 | 34.72136 | -92.22066 | 265 ft | 23 kts | 226° |
| 2026-04-26 04:27 | 34.72045 | -92.22177 | 265 ft | 11 kts | 211° |
| 2026-04-26 04:27 | 34.71983 | -92.22158 | 266 ft | 10 kts | 143° |
| 2026-04-26 04:27 | 34.71970 | -92.22087 | 266 ft | 9 kts | 70° |
| 2026-04-26 04:28 | 34.72012 | -92.22026 | 266 ft | 14 kts | 46° |
| 2026-04-26 04:28 | 34.72261 | -92.21711 | 267 ft | 89 kts | 46° |
| 2026-04-26 04:28 | 34.72843 | -92.20970 | 268 ft | 150 kts | 46° |
| 2026-04-26 04:28 | 34.73611 | -92.19999 | 776 ft | 160 kts | 46° |
| 2026-04-26 04:29 | 34.74392 | -92.19036 | 1541 ft | 163 kts | 46° |
| 2026-04-26 04:29 | 34.75266 | -92.18016 | 1976 ft | 189 kts | 45° |
| 2026-04-26 04:29 | 34.76278 | -92.16841 | 2244 ft | 218 kts | 45° |
| 2026-04-26 04:29 | 34.77507 | -92.15588 | 2537 ft | 243 kts | 31° |
| 2026-04-26 04:30 | 34.79200 | -92.15001 | 2961 ft | 265 kts | 356° |
| 2026-04-26 04:30 | 34.80931 | -92.15718 | 3802 ft | 267 kts | 323° |
| 2026-04-26 04:30 | 34.82119 | -92.17408 | 4751 ft | 265 kts | 294° |
| 2026-04-26 04:30 | 34.82493 | -92.19573 | 5661 ft | 264 kts | 266° |
| 2026-04-26 04:31 | 34.82009 | -92.21723 | 6590 ft | 266 kts | 242° |
| 2026-04-26 04:31 | 34.80866 | -92.23508 | 7496 ft | 270 kts | 227° |
| 2026-04-26 04:31 | 34.79545 | -92.25111 | 8432 ft | 274 kts | 226° |
| 2026-04-26 04:31 | 34.78175 | -92.26733 | 9422 ft | 276 kts | 226° |
| 2026-04-26 04:32 | 34.76796 | -92.28385 | 10351 ft | 281 kts | 227° |
| 2026-04-26 04:32 | 34.75357 | -92.30129 | 10713 ft | 306 kts | 227° |
| 2026-04-26 04:32 | 34.73788 | -92.32043 | 10934 ft | 332 kts | 227° |
| 2026-04-26 04:32 | 34.72230 | -92.34196 | 11481 ft | 343 kts | 235° |
| 2026-04-26 04:33 | 34.70997 | -92.36682 | 12342 ft | 344 kts | 244° |
| 2026-04-26 04:33 | 34.69938 | -92.39301 | 13249 ft | 347 kts | 245° |
| 2026-04-26 04:33 | 34.68908 | -92.41923 | 14058 ft | 351 kts | 246° |
| 2026-04-26 04:33 | 34.67855 | -92.44615 | 14875 ft | 354 kts | 246° |
| 2026-04-26 04:34 | 34.66795 | -92.47320 | 15738 ft | 356 kts | 246° |
| 2026-04-26 04:34 | 34.65719 | -92.50048 | 16581 ft | 359 kts | 246° |
| 2026-04-26 04:34 | 34.64628 | -92.52799 | 17397 ft | 363 kts | 246° |
| 2026-04-26 04:34 | 34.63523 | -92.55575 | 18194 ft | 367 kts | 247° |
| 2026-04-26 04:35 | 34.62406 | -92.58373 | 18881 ft | 370 kts | 247° |
| 2026-04-26 04:35 | 34.61277 | -92.61197 | 19590 ft | 373 kts | 247° |
| 2026-04-26 04:35 | 34.60153 | -92.64002 | 20302 ft | 376 kts | 247° |
| 2026-04-26 04:35 | 34.59000 | -92.66874 | 21017 ft | 380 kts | 247° |
| 2026-04-26 04:36 | 34.57839 | -92.69764 | 21693 ft | 383 kts | 247° |
| 2026-04-26 04:36 | 34.56666 | -92.72682 | 22337 ft | 387 kts | 247° |
| 2026-04-26 04:36 | 34.55481 | -92.75628 | 22945 ft | 390 kts | 247° |
| 2026-04-26 04:36 | 34.54288 | -92.78590 | 23546 ft | 393 kts | 247° |
| 2026-04-26 04:37 | 34.53083 | -92.81579 | 24067 ft | 396 kts | 248° |
| 2026-04-26 04:37 | 34.51865 | -92.84597 | 24614 ft | 398 kts | 248° |
| 2026-04-26 04:37 | 34.50661 | -92.87577 | 25144 ft | 400 kts | 247° |
| 2026-04-26 04:37 | 34.49435 | -92.90609 | 25666 ft | 402 kts | 248° |
| 2026-04-26 04:38 | 34.48200 | -92.93661 | 26179 ft | 404 kts | 248° |
| 2026-04-26 04:38 | 34.46960 | -92.96724 | 26674 ft | 406 kts | 248° |
| 2026-04-26 04:38 | 34.45710 | -92.99807 | 27162 ft | 409 kts | 248° |
| 2026-04-26 04:38 | 34.44453 | -93.02906 | 27613 ft | 411 kts | 248° |
| 2026-04-26 04:39 | 34.43186 | -93.06026 | 28048 ft | 414 kts | 248° |
| 2026-04-26 04:39 | 34.41912 | -93.09161 | 28478 ft | 416 kts | 248° |
| 2026-04-26 04:39 | 34.40646 | -93.12272 | 28898 ft | 419 kts | 248° |
| 2026-04-26 04:39 | 34.39356 | -93.15440 | 29320 ft | 421 kts | 248° |
| 2026-04-26 04:40 | 34.38056 | -93.18628 | 29767 ft | 422 kts | 248° |
| 2026-04-26 04:40 | 34.36759 | -93.21807 | 30294 ft | 420 kts | 248° |
| 2026-04-26 04:40 | 34.35469 | -93.24961 | 30873 ft | 416 kts | 248° |
| 2026-04-26 04:40 | 34.34190 | -93.28086 | 31364 ft | 414 kts | 248° |
| 2026-04-26 04:41 | 34.32911 | -93.31213 | 31784 ft | 414 kts | 248° |
| 2026-04-26 04:41 | 34.31635 | -93.34330 | 32209 ft | 413 kts | 248° |
| 2026-04-26 04:41 | 34.30363 | -93.37433 | 32690 ft | 411 kts | 248° |
| 2026-04-26 04:41 | 34.29112 | -93.40483 | 33136 ft | 410 kts | 248° |
| 2026-04-26 04:42 | 34.27845 | -93.43568 | 33504 ft | 410 kts | 248° |
| 2026-04-26 04:42 | 34.26577 | -93.46657 | 33842 ft | 411 kts | 247° |
| 2026-04-26 04:42 | 34.25302 | -93.49758 | 33823 ft | 413 kts | 247° |
| 2026-04-26 04:43 | 34.22749 | -93.55953 | 33843 ft | 410 kts | 248° |
| 2026-04-26 04:43 | 34.20213 | -93.62098 | 33842 ft | 408 kts | 248° |
| 2026-04-26 04:44 | 34.17701 | -93.68178 | 33845 ft | 407 kts | 248° |
| 2026-04-26 04:44 | 34.15175 | -93.74282 | 33846 ft | 406 kts | 248° |
| 2026-04-26 04:45 | 34.12756 | -93.80432 | 33837 ft | 404 kts | 251° |
| 2026-04-26 04:45 | 34.10702 | -93.86736 | 33847 ft | 403 kts | 253° |
| 2026-04-26 04:46 | 34.08692 | -93.93059 | 33845 ft | 404 kts | 252° |
| 2026-04-26 04:46 | 34.06656 | -93.99344 | 33843 ft | 405 kts | 252° |
| 2026-04-26 04:47 | 34.04579 | -94.05671 | 33846 ft | 407 kts | 252° |
| 2026-04-26 04:47 | 34.02481 | -94.12025 | 33845 ft | 408 kts | 252° |
| 2026-04-26 04:48 | 33.99336 | -94.21526 | 33843 ft | 411 kts | 252° |
| 2026-04-26 04:48 | 33.97272 | -94.27744 | 33849 ft | 412 kts | 252° |
| 2026-04-26 04:49 | 33.95138 | -94.34160 | 33852 ft | 413 kts | 252° |
| 2026-04-26 04:49 | 33.92999 | -94.40578 | 33846 ft | 413 kts | 252° |
| 2026-04-26 04:50 | 33.90856 | -94.46997 | 33848 ft | 413 kts | 252° |
| 2026-04-26 04:50 | 33.88723 | -94.53371 | 33847 ft | 413 kts | 252° |
| 2026-04-26 04:51 | 33.86575 | -94.59777 | 33838 ft | 413 kts | 252° |
| 2026-04-26 04:51 | 33.84427 | -94.66171 | 33829 ft | 412 kts | 252° |
| 2026-04-26 04:52 | 33.82280 | -94.72552 | 33825 ft | 411 kts | 252° |
| 2026-04-26 04:52 | 33.80148 | -94.78874 | 33828 ft | 410 kts | 252° |
| 2026-04-26 04:53 | 33.78006 | -94.85217 | 33823 ft | 409 kts | 252° |
| 2026-04-26 04:53 | 33.75853 | -94.91540 | 33834 ft | 408 kts | 251° |
| 2026-04-26 04:54 | 33.73684 | -94.97836 | 33822 ft | 407 kts | 251° |
| 2026-04-26 04:54 | 33.71531 | -95.04073 | 33832 ft | 406 kts | 251° |
| 2026-04-26 04:55 | 33.69369 | -95.10333 | 33838 ft | 405 kts | 251° |
| 2026-04-26 04:55 | 33.68289 | -95.13459 | 33519 ft | 409 kts | 251° |
| 2026-04-26 04:55 | 33.67193 | -95.16633 | 32756 ft | 410 kts | 251° |
| 2026-04-26 04:56 | 33.66096 | -95.19800 | 31874 ft | 411 kts | 251° |
| 2026-04-26 04:56 | 33.64999 | -95.22964 | 30975 ft | 412 kts | 252° |
| 2026-04-26 04:56 | 33.63892 | -95.26157 | 30010 ft | 415 kts | 252° |
| 2026-04-26 04:56 | 33.62793 | -95.29325 | 29084 ft | 415 kts | 251° |
| 2026-04-26 04:57 | 33.61699 | -95.32461 | 28885 ft | 399 kts | 251° |
| 2026-04-26 04:57 | 33.60647 | -95.35470 | 28666 ft | 384 kts | 251° |
| 2026-04-26 04:57 | 33.59622 | -95.38418 | 27777 ft | 386 kts | 251° |
| 2026-04-26 04:57 | 33.58596 | -95.41367 | 27117 ft | 383 kts | 251° |
| 2026-04-26 04:58 | 33.57576 | -95.44307 | 26480 ft | 380 kts | 251° |
| 2026-04-26 04:58 | 33.56568 | -95.47236 | 25854 ft | 378 kts | 251° |
| 2026-04-26 04:58 | 33.55573 | -95.50135 | 25277 ft | 375 kts | 251° |
| 2026-04-26 04:58 | 33.54585 | -95.53015 | 24704 ft | 372 kts | 251° |
| 2026-04-26 04:59 | 33.53618 | -95.55830 | 24145 ft | 369 kts | 251° |
| 2026-04-26 04:59 | 33.52640 | -95.58670 | 23558 ft | 368 kts | 250° |
| 2026-04-26 04:59 | 33.51669 | -95.61491 | 22916 ft | 366 kts | 250° |
| 2026-04-26 04:59 | 33.50700 | -95.64298 | 22301 ft | 362 kts | 250° |
| 2026-04-26 05:00 | 33.49742 | -95.67072 | 21737 ft | 358 kts | 250° |
| 2026-04-26 05:00 | 33.48793 | -95.69812 | 21161 ft | 354 kts | 250° |
| 2026-04-26 05:00 | 33.47846 | -95.72525 | 20564 ft | 352 kts | 250° |
| 2026-04-26 05:00 | 33.46901 | -95.75216 | 20005 ft | 349 kts | 250° |
| 2026-04-26 05:01 | 33.45978 | -95.77841 | 19461 ft | 345 kts | 250° |
| 2026-04-26 05:01 | 33.45050 | -95.80480 | 18918 ft | 342 kts | 250° |
| 2026-04-26 05:01 | 33.44129 | -95.83097 | 18389 ft | 340 kts | 250° |
| 2026-04-26 05:01 | 33.43217 | -95.85691 | 17884 ft | 335 kts | 250° |
| 2026-04-26 05:02 | 33.42320 | -95.88238 | 17394 ft | 330 kts | 250° |
| 2026-04-26 05:02 | 33.41436 | -95.90747 | 16889 ft | 325 kts | 250° |
| 2026-04-26 05:02 | 33.40562 | -95.93227 | 16372 ft | 321 kts | 250° |
| 2026-04-26 05:02 | 33.39698 | -95.95680 | 15833 ft | 319 kts | 250° |
| 2026-04-26 05:03 | 33.38839 | -95.98113 | 15326 ft | 316 kts | 250° |
| 2026-04-26 05:03 | 33.38001 | -96.00487 | 14821 ft | 313 kts | 250° |
| 2026-04-26 05:03 | 33.37158 | -96.02874 | 14316 ft | 311 kts | 250° |
| 2026-04-26 05:03 | 33.36319 | -96.05250 | 13814 ft | 309 kts | 250° |
| 2026-04-26 05:04 | 33.35485 | -96.07607 | 13271 ft | 307 kts | 250° |
| 2026-04-26 05:04 | 33.34657 | -96.09947 | 12725 ft | 305 kts | 250° |
| 2026-04-26 05:04 | 33.33835 | -96.12264 | 12223 ft | 301 kts | 249° |
| 2026-04-26 05:04 | 33.33018 | -96.14566 | 11705 ft | 300 kts | 249° |
| 2026-04-26 05:05 | 33.32206 | -96.16853 | 11193 ft | 298 kts | 249° |
| 2026-04-26 05:05 | 33.31398 | -96.19129 | 10687 ft | 297 kts | 249° |
| 2026-04-26 05:05 | 33.30607 | -96.21350 | 10418 ft | 288 kts | 249° |
| 2026-04-26 05:05 | 33.29838 | -96.23509 | 10248 ft | 277 kts | 249° |
| 2026-04-26 05:06 | 33.29102 | -96.25576 | 10124 ft | 265 kts | 250° |
| 2026-04-26 05:06 | 33.28397 | -96.27556 | 10001 ft | 254 kts | 250° |
| 2026-04-26 05:06 | 33.27709 | -96.29488 | 9644 ft | 252 kts | 250° |
| 2026-04-26 05:06 | 33.27024 | -96.31412 | 9300 ft | 251 kts | 250° |
| 2026-04-26 05:07 | 33.26326 | -96.33316 | 8973 ft | 250 kts | 245° |
| 2026-04-26 05:07 | 33.25361 | -96.35031 | 8820 ft | 250 kts | 236° |
| 2026-04-26 05:07 | 33.24278 | -96.36664 | 8660 ft | 258 kts | 234° |
| 2026-04-26 05:07 | 33.23326 | -96.38482 | 8481 ft | 260 kts | 247° |
| 2026-04-26 05:08 | 33.22626 | -96.40473 | 8306 ft | 260 kts | 251° |
| 2026-04-26 05:08 | 33.21979 | -96.42486 | 8133 ft | 259 kts | 251° |
| 2026-04-26 05:08 | 33.21341 | -96.44482 | 7950 ft | 255 kts | 251° |
| 2026-04-26 05:08 | 33.20703 | -96.46451 | 7790 ft | 253 kts | 250° |
| 2026-04-26 05:09 | 33.20062 | -96.48405 | 7623 ft | 253 kts | 250° |
| 2026-04-26 05:09 | 33.19414 | -96.50358 | 7467 ft | 253 kts | 250° |
| 2026-04-26 05:09 | 33.18762 | -96.52307 | 7293 ft | 253 kts | 250° |
| 2026-04-26 05:09 | 33.18106 | -96.54258 | 7144 ft | 253 kts | 250° |
| 2026-04-26 05:10 | 33.17455 | -96.56186 | 6971 ft | 254 kts | 249° |
| 2026-04-26 05:10 | 33.16791 | -96.58144 | 6806 ft | 255 kts | 249° |
| 2026-04-26 05:10 | 33.16126 | -96.60102 | 6646 ft | 255 kts | 249° |
| 2026-04-26 05:10 | 33.15459 | -96.62062 | 6479 ft | 255 kts | 249° |
| 2026-04-26 05:11 | 33.14793 | -96.64017 | 6314 ft | 255 kts | 249° |
| 2026-04-26 05:11 | 33.14126 | -96.65971 | 6143 ft | 255 kts | 249° |
| 2026-04-26 05:11 | 33.13454 | -96.67936 | 5963 ft | 255 kts | 248° |
| 2026-04-26 05:11 | 33.12786 | -96.69889 | 5797 ft | 254 kts | 249° |
| 2026-04-26 05:12 | 33.12120 | -96.71835 | 5624 ft | 253 kts | 248° |
| 2026-04-26 05:12 | 33.11623 | -96.73807 | 5445 ft | 253 kts | 264° |
| 2026-04-26 05:12 | 33.11780 | -96.75881 | 5293 ft | 253 kts | 283° |
| 2026-04-26 05:12 | 33.12309 | -96.77878 | 5155 ft | 252 kts | 287° |
| 2026-04-26 05:13 | 33.12881 | -96.79851 | 5015 ft | 252 kts | 287° |
| 2026-04-26 05:13 | 33.13457 | -96.81810 | 4911 ft | 249 kts | 287° |
| 2026-04-26 05:13 | 33.14033 | -96.83754 | 4822 ft | 247 kts | 287° |
| 2026-04-26 05:13 | 33.14552 | -96.85715 | 4644 ft | 247 kts | 276° |
| 2026-04-26 05:14 | 33.14373 | -96.87717 | 4277 ft | 245 kts | 247° |
| 2026-04-26 05:14 | 33.13429 | -96.89402 | 3942 ft | 245 kts | 229° |
| 2026-04-26 05:14 | 33.12320 | -96.90892 | 3689 ft | 242 kts | 228° |
| 2026-04-26 05:14 | 33.11191 | -96.92382 | 3331 ft | 243 kts | 227° |
| 2026-04-26 05:15 | 33.10063 | -96.93880 | 3054 ft | 242 kts | 227° |
| 2026-04-26 05:15 | 33.08947 | -96.95380 | 3006 ft | 243 kts | 228° |
| 2026-04-26 05:15 | 33.07819 | -96.96896 | 2972 ft | 244 kts | 227° |
| 2026-04-26 05:15 | 33.06715 | -96.98379 | 2985 ft | 232 kts | 228° |
| 2026-04-26 05:16 | 33.05673 | -96.99789 | 2801 ft | 221 kts | 227° |
| 2026-04-26 05:16 | 33.04666 | -97.01135 | 2511 ft | 217 kts | 220° |
| 2026-04-26 05:16 | 33.03369 | -97.01875 | 2484 ft | 211 kts | 186° |
| 2026-04-26 05:16 | 33.01915 | -97.01666 | 2485 ft | 213 kts | 165° |
| 2026-04-26 05:17 | 33.00493 | -97.01176 | 2475 ft | 213 kts | 163° |
| 2026-04-26 05:17 | 32.99071 | -97.00644 | 2472 ft | 216 kts | 156° |
| 2026-04-26 05:17 | 32.97852 | -96.99634 | 2482 ft | 209 kts | 140° |
| 2026-04-26 05:17 | 32.96809 | -96.98542 | 2462 ft | 191 kts | 138° |
| 2026-04-26 05:18 | 32.95874 | -96.97481 | 2478 ft | 181 kts | 137° |
| 2026-04-26 05:18 | 32.94977 | -96.96443 | 2464 ft | 176 kts | 137° |
| 2026-04-26 05:18 | 32.94157 | -96.95486 | 2485 ft | 154 kts | 136° |
| 2026-04-26 05:18 | 32.93432 | -96.94643 | 2454 ft | 137 kts | 137° |
| 2026-04-26 05:19 | 32.92746 | -96.93845 | 2386 ft | 143 kts | 138° |
| 2026-04-26 05:19 | 32.92048 | -96.93034 | 2218 ft | 139 kts | 136° |
| 2026-04-26 05:19 | 32.91360 | -96.92235 | 2036 ft | 136 kts | 135° |
| 2026-04-26 05:19 | 32.90686 | -96.91450 | 1889 ft | 134 kts | 135° |
| 2026-04-26 05:20 | 32.90015 | -96.90671 | 1694 ft | 135 kts | 134° |
| 2026-04-26 05:20 | 32.89343 | -96.89890 | 1532 ft | 138 kts | 133° |
| 2026-04-26 05:20 | 32.88672 | -96.89071 | 1397 ft | 138 kts | 134° |
| 2026-04-26 05:20 | 32.87982 | -96.88289 | 1215 ft | 135 kts | 137° |
| 2026-04-26 05:21 | 32.87339 | -96.87548 | 1019 ft | 130 kts | 137° |
| 2026-04-26 05:21 | 32.86696 | -96.86800 | 834 ft | 127 kts | 137° |
| 2026-04-26 05:21 | 32.86044 | -96.86048 | 647 ft | 134 kts | 136° |
| 2026-04-26 05:21 | 32.85392 | -96.85289 | 490 ft | 124 kts | 134° |
| 2026-04-26 05:22 | 32.84912 | -96.84737 | 491 ft | 64 kts | 136° |
| 2026-04-26 05:22 | 32.84754 | -96.84579 | 487 ft | 10 kts | 205° |
| 2026-04-26 05:22 | 32.84706 | -96.84650 | 492 ft | 12 kts | 242° |
| 2026-04-26 05:22 | 32.84738 | -96.84717 | 486 ft | 10 kts | 314° |
| 2026-04-26 05:23 | 32.84781 | -96.84776 | 487 ft | 9 kts | 282° |
| 2026-04-26 05:23 | 32.84741 | -96.84820 | 488 ft | 9 kts | 189° |
| 2026-04-26 05:23 | 32.84684 | -96.84842 | 491 ft | 8 kts | 185° |
| 2026-04-26 05:23 | 32.84644 | -96.84844 | 488 ft | 0 kts | 182° |